sensor_id;sensor_type;location;lat;lon;timestamp;temperature;humidity
2783;DHT22;1399;47.072;15.452;2023-09-07T00:00:11;18.00;91.70
2783;DHT22;1399;47.072;15.452;2023-09-07T00:02:36;17.90;91.60
2783;DHT22;1399;47.072;15.452;2023-09-07T00:05:02;17.90;91.60
2783;DHT22;1399;47.072;15.452;2023-09-07T00:07:30;17.90;91.60
2783;DHT22;1399;47.072;15.452;2023-09-07T00:09:56;17.90;91.70
2783;DHT22;1399;47.072;15.452;2023-09-07T00:12:22;17.90;91.70
2783;DHT22;1399;47.072;15.452;2023-09-07T00:14:47;17.90;91.70
2783;DHT22;1399;47.072;15.452;2023-09-07T00:17:13;17.90;91.70
2783;DHT22;1399;47.072;15.452;2023-09-07T00:19:39;17.90;91.70
2783;DHT22;1399;47.072;15.452;2023-09-07T00:22:04;17.90;92.10
2783;DHT22;1399;47.072;15.452;2023-09-07T00:24:31;17.80;91.70
2783;DHT22;1399;47.072;15.452;2023-09-07T00:26:58;17.80;91.70
2783;DHT22;1399;47.072;15.452;2023-09-07T00:29:23;17.80;91.70
2783;DHT22;1399;47.072;15.452;2023-09-07T00:31:49;17.80;91.70
2783;DHT22;1399;47.072;15.452;2023-09-07T00:34:15;17.80;91.70
2783;DHT22;1399;47.072;15.452;2023-09-07T00:36:40;17.80;91.70
2783;DHT22;1399;47.072;15.452;2023-09-07T00:39:06;17.80;91.70
2783;DHT22;1399;47.072;15.452;2023-09-07T00:41:32;17.80;91.70
2783;DHT22;1399;47.072;15.452;2023-09-07T00:43:58;17.80;91.80
2783;DHT22;1399;47.072;15.452;2023-09-07T00:46:23;17.70;91.70
2783;DHT22;1399;47.072;15.452;2023-09-07T00:48:50;17.70;91.70
2783;DHT22;1399;47.072;15.452;2023-09-07T00:51:15;17.70;91.70
2783;DHT22;1399;47.072;15.452;2023-09-07T00:53:41;17.70;91.70
2783;DHT22;1399;47.072;15.452;2023-09-07T00:56:07;17.70;91.70
2783;DHT22;1399;47.072;15.452;2023-09-07T00:58:33;17.70;91.70
2783;DHT22;1399;47.072;15.452;2023-09-07T01:01:00;17.70;91.70
2783;DHT22;1399;47.072;15.452;2023-09-07T01:03:25;17.70;91.70
2783;DHT22;1399;47.072;15.452;2023-09-07T01:05:57;17.70;92.10
2783;DHT22;1399;47.072;15.452;2023-09-07T01:08:27;17.70;91.70
2783;DHT22;1399;47.072;15.452;2023-09-07T01:10:54;17.70;91.70
2783;DHT22;1399;47.072;15.452;2023-09-07T01:13:20;17.60;91.70
2783;DHT22;1399;47.072;15.452;2023-09-07T01:15:46;17.60;91.70
2783;DHT22;1399;47.072;15.452;2023-09-07T01:18:13;17.60;91.70
2783;DHT22;1399;47.072;15.452;2023-09-07T01:20:41;17.60;91.70
2783;DHT22;1399;47.072;15.452;2023-09-07T01:23:08;17.60;91.70
2783;DHT22;1399;47.072;15.452;2023-09-07T01:25:35;17.60;91.70
2783;DHT22;1399;47.072;15.452;2023-09-07T01:28:01;17.60;91.70
2783;DHT22;1399;47.072;15.452;2023-09-07T01:30:29;17.60;91.70
2783;DHT22;1399;47.072;15.452;2023-09-07T01:32:55;17.60;92.10
2783;DHT22;1399;47.072;15.452;2023-09-07T01:35:21;17.60;91.70
2783;DHT22;1399;47.072;15.452;2023-09-07T01:37:48;17.60;91.80
2783;DHT22;1399;47.072;15.452;2023-09-07T01:40:13;17.50;91.70
2783;DHT22;1399;47.072;15.452;2023-09-07T01:42:40;17.50;91.70
2783;DHT22;1399;47.072;15.452;2023-09-07T01:45:06;17.50;91.70
2783;DHT22;1399;47.072;15.452;2023-09-07T01:47:32;17.50;91.70
2783;DHT22;1399;47.072;15.452;2023-09-07T01:49:58;17.50;91.70
2783;DHT22;1399;47.072;15.452;2023-09-07T01:52:23;17.50;91.70
2783;DHT22;1399;47.072;15.452;2023-09-07T01:54:49;17.50;91.80
2783;DHT22;1399;47.072;15.452;2023-09-07T01:57:15;17.50;92.10
2783;DHT22;1399;47.072;15.452;2023-09-07T01:59:40;17.50;91.80
2783;DHT22;1399;47.072;15.452;2023-09-07T02:02:06;17.50;91.80
2783;DHT22;1399;47.072;15.452;2023-09-07T02:04:32;17.50;91.80
2783;DHT22;1399;47.072;15.452;2023-09-07T02:06:57;17.40;91.70
2783;DHT22;1399;47.072;15.452;2023-09-07T02:09:23;17.40;91.70
2783;DHT22;1399;47.072;15.452;2023-09-07T02:11:49;17.40;91.80
2783;DHT22;1399;47.072;15.452;2023-09-07T02:14:15;17.40;91.80
2783;DHT22;1399;47.072;15.452;2023-09-07T02:16:41;17.40;91.80
2783;DHT22;1399;47.072;15.452;2023-09-07T02:19:07;17.40;91.80
2783;DHT22;1399;47.072;15.452;2023-09-07T02:21:33;17.40;91.80
2783;DHT22;1399;47.072;15.452;2023-09-07T02:23:59;17.40;91.80
2783;DHT22;1399;47.072;15.452;2023-09-07T02:26:25;17.40;91.80
2783;DHT22;1399;47.072;15.452;2023-09-07T02:28:50;17.40;91.80
2783;DHT22;1399;47.072;15.452;2023-09-07T02:31:16;17.40;91.80
2783;DHT22;1399;47.072;15.452;2023-09-07T02:33:42;17.30;91.70
2783;DHT22;1399;47.072;15.452;2023-09-07T02:36:08;17.30;91.70
2783;DHT22;1399;47.072;15.452;2023-09-07T02:38:33;17.30;91.70
2783;DHT22;1399;47.072;15.452;2023-09-07T02:40:59;17.30;91.70
2783;DHT22;1399;47.072;15.452;2023-09-07T02:43:26;17.30;91.70
2783;DHT22;1399;47.072;15.452;2023-09-07T02:45:52;17.30;92.10
2783;DHT22;1399;47.072;15.452;2023-09-07T02:48:18;17.30;91.70
2783;DHT22;1399;47.072;15.452;2023-09-07T02:50:43;17.30;91.70
2783;DHT22;1399;47.072;15.452;2023-09-07T02:53:14;17.30;91.80
2783;DHT22;1399;47.072;15.452;2023-09-07T02:55:40;17.30;91.80
2783;DHT22;1399;47.072;15.452;2023-09-07T02:58:06;17.20;91.70
2783;DHT22;1399;47.072;15.452;2023-09-07T03:00:31;17.20;91.80
2783;DHT22;1399;47.072;15.452;2023-09-07T03:02:57;17.20;91.80
2783;DHT22;1399;47.072;15.452;2023-09-07T03:05:27;17.20;91.80
2783;DHT22;1399;47.072;15.452;2023-09-07T03:07:54;17.20;91.80
2783;DHT22;1399;47.072;15.452;2023-09-07T03:10:19;17.20;91.80
2783;DHT22;1399;47.072;15.452;2023-09-07T03:12:45;17.20;91.80
2783;DHT22;1399;47.072;15.452;2023-09-07T03:15:11;17.20;91.80
2783;DHT22;1399;47.072;15.452;2023-09-07T03:17:37;17.20;91.80
2783;DHT22;1399;47.072;15.452;2023-09-07T03:20:03;17.20;91.80
2783;DHT22;1399;47.072;15.452;2023-09-07T03:22:41;17.20;91.80
2783;DHT22;1399;47.072;15.452;2023-09-07T03:25:08;17.20;91.80
2783;DHT22;1399;47.072;15.452;2023-09-07T03:27:33;17.10;91.80
2783;DHT22;1399;47.072;15.452;2023-09-07T03:29:59;17.10;91.80
2783;DHT22;1399;47.072;15.452;2023-09-07T03:32:25;17.10;91.80
2783;DHT22;1399;47.072;15.452;2023-09-07T03:34:54;17.10;91.80
2783;DHT22;1399;47.072;15.452;2023-09-07T03:37:20;17.10;91.80
2783;DHT22;1399;47.072;15.452;2023-09-07T03:39:46;17.10;91.80
2783;DHT22;1399;47.072;15.452;2023-09-07T03:42:11;17.10;91.80
2783;DHT22;1399;47.072;15.452;2023-09-07T03:44:37;17.10;91.80
2783;DHT22;1399;47.072;15.452;2023-09-07T03:47:05;17.10;91.80
2783;DHT22;1399;47.072;15.452;2023-09-07T03:49:30;17.10;91.80
2783;DHT22;1399;47.072;15.452;2023-09-07T03:51:56;17.10;91.80
2783;DHT22;1399;47.072;15.452;2023-09-07T03:54:22;17.10;91.70
2783;DHT22;1399;47.072;15.452;2023-09-07T03:56:48;17.10;91.70
2783;DHT22;1399;47.072;15.452;2023-09-07T03:59:13;17.10;91.70
2783;DHT22;1399;47.072;15.452;2023-09-07T04:01:39;17.10;91.70
2783;DHT22;1399;47.072;15.452;2023-09-07T04:04:05;17.10;91.80
2783;DHT22;1399;47.072;15.452;2023-09-07T04:06:31;17.00;91.70
2783;DHT22;1399;47.072;15.452;2023-09-07T04:08:57;17.00;91.70
2783;DHT22;1399;47.072;15.452;2023-09-07T04:11:22;17.00;91.80
2783;DHT22;1399;47.072;15.452;2023-09-07T04:13:48;17.00;91.80
2783;DHT22;1399;47.072;15.452;2023-09-07T04:16:14;17.00;91.80
2783;DHT22;1399;47.072;15.452;2023-09-07T04:18:40;17.00;91.80
2783;DHT22;1399;47.072;15.452;2023-09-07T04:21:07;17.00;91.80
2783;DHT22;1399;47.072;15.452;2023-09-07T04:23:33;17.00;91.80
2783;DHT22;1399;47.072;15.452;2023-09-07T04:26:18;17.00;91.80
2783;DHT22;1399;47.072;15.452;2023-09-07T04:28:44;17.00;91.80
2783;DHT22;1399;47.072;15.452;2023-09-07T04:31:10;17.00;91.80
2783;DHT22;1399;47.072;15.452;2023-09-07T04:33:36;17.00;91.80
2783;DHT22;1399;47.072;15.452;2023-09-07T04:36:14;16.90;91.70
2783;DHT22;1399;47.072;15.452;2023-09-07T04:38:41;16.90;91.70
2783;DHT22;1399;47.072;15.452;2023-09-07T04:41:12;16.90;91.70
2783;DHT22;1399;47.072;15.452;2023-09-07T04:43:39;16.90;91.70
2783;DHT22;1399;47.072;15.452;2023-09-07T04:46:09;16.90;91.70
2783;DHT22;1399;47.072;15.452;2023-09-07T04:48:36;16.90;91.70
2783;DHT22;1399;47.072;15.452;2023-09-07T04:51:03;16.90;91.60
2783;DHT22;1399;47.072;15.452;2023-09-07T04:53:30;16.90;91.60
2783;DHT22;1399;47.072;15.452;2023-09-07T04:55:57;17.00;91.60
2783;DHT22;1399;47.072;15.452;2023-09-07T04:58:23;17.00;91.50
2783;DHT22;1399;47.072;15.452;2023-09-07T05:00:49;17.00;91.50
2783;DHT22;1399;47.072;15.452;2023-09-07T05:03:14;17.00;91.50
2783;DHT22;1399;47.072;15.452;2023-09-07T05:05:41;17.00;91.40
2783;DHT22;1399;47.072;15.452;2023-09-07T05:08:07;17.00;91.30
2783;DHT22;1399;47.072;15.452;2023-09-07T05:10:33;17.00;91.30
2783;DHT22;1399;47.072;15.452;2023-09-07T05:12:59;17.00;91.30
2783;DHT22;1399;47.072;15.452;2023-09-07T05:15:25;17.00;91.30
2783;DHT22;1399;47.072;15.452;2023-09-07T05:17:52;17.00;91.20
2783;DHT22;1399;47.072;15.452;2023-09-07T05:20:17;17.00;91.20
2783;DHT22;1399;47.072;15.452;2023-09-07T05:22:43;17.00;91.20
2783;DHT22;1399;47.072;15.452;2023-09-07T05:25:09;17.00;91.20
2783;DHT22;1399;47.072;15.452;2023-09-07T05:27:35;17.00;91.10
2783;DHT22;1399;47.072;15.452;2023-09-07T05:30:06;17.10;91.20
2783;DHT22;1399;47.072;15.452;2023-09-07T05:32:33;17.10;91.10
2783;DHT22;1399;47.072;15.452;2023-09-07T05:34:58;17.10;91.10
2783;DHT22;1399;47.072;15.452;2023-09-07T05:37:24;17.10;91.10
2783;DHT22;1399;47.072;15.452;2023-09-07T05:39:50;17.20;91.10
2783;DHT22;1399;47.072;15.452;2023-09-07T05:42:16;17.20;91.10
2783;DHT22;1399;47.072;15.452;2023-09-07T05:44:42;17.20;91.10
2783;DHT22;1399;47.072;15.452;2023-09-07T05:47:07;17.20;91.10
2783;DHT22;1399;47.072;15.452;2023-09-07T05:49:33;17.30;91.10
2783;DHT22;1399;47.072;15.452;2023-09-07T05:51:59;17.20;91.10
2783;DHT22;1399;47.072;15.452;2023-09-07T05:54:24;17.30;91.10
2783;DHT22;1399;47.072;15.452;2023-09-07T05:56:50;17.30;91.50
2783;DHT22;1399;47.072;15.452;2023-09-07T05:59:16;17.40;91.20
2783;DHT22;1399;47.072;15.452;2023-09-07T06:01:42;17.40;91.20
2783;DHT22;1399;47.072;15.452;2023-09-07T06:04:07;17.40;91.20
2783;DHT22;1399;47.072;15.452;2023-09-07T06:06:33;17.50;91.30
2783;DHT22;1399;47.072;15.452;2023-09-07T06:08:59;17.60;91.30
2783;DHT22;1399;47.072;15.452;2023-09-07T06:11:25;17.90;91.10
2783;DHT22;1399;47.072;15.452;2023-09-07T06:13:51;18.40;90.50
2783;DHT22;1399;47.072;15.452;2023-09-07T06:16:17;18.80;89.50
2783;DHT22;1399;47.072;15.452;2023-09-07T06:18:43;19.20;87.90
2783;DHT22;1399;47.072;15.452;2023-09-07T06:21:08;19.50;86.60
2783;DHT22;1399;47.072;15.452;2023-09-07T06:23:34;19.80;85.40
2783;DHT22;1399;47.072;15.452;2023-09-07T06:26:00;19.90;84.40
2783;DHT22;1399;47.072;15.452;2023-09-07T06:28:26;20.10;83.90
2783;DHT22;1399;47.072;15.452;2023-09-07T06:30:52;20.20;83.30
2783;DHT22;1399;47.072;15.452;2023-09-07T06:33:18;20.30;83.10
2783;DHT22;1399;47.072;15.452;2023-09-07T06:35:44;20.30;83.00
2783;DHT22;1399;47.072;15.452;2023-09-07T06:38:09;20.30;83.10
2783;DHT22;1399;47.072;15.452;2023-09-07T06:40:35;20.30;83.30
2783;DHT22;1399;47.072;15.452;2023-09-07T06:43:03;20.30;83.70
2783;DHT22;1399;47.072;15.452;2023-09-07T06:45:34;20.10;83.80
2783;DHT22;1399;47.072;15.452;2023-09-07T06:48:02;20.10;84.20
2783;DHT22;1399;47.072;15.452;2023-09-07T06:50:27;20.00;84.40
2783;DHT22;1399;47.072;15.452;2023-09-07T06:52:53;20.00;84.70
2783;DHT22;1399;47.072;15.452;2023-09-07T06:55:19;20.00;84.90
2783;DHT22;1399;47.072;15.452;2023-09-07T06:57:45;19.90;85.00
2783;DHT22;1399;47.072;15.452;2023-09-07T07:00:11;19.90;85.10
2783;DHT22;1399;47.072;15.452;2023-09-07T07:02:37;19.90;85.30
2783;DHT22;1399;47.072;15.452;2023-09-07T07:05:04;19.90;85.50
2783;DHT22;1399;47.072;15.452;2023-09-07T07:07:30;19.90;86.40
2783;DHT22;1399;47.072;15.452;2023-09-07T07:09:56;19.90;85.60
2783;DHT22;1399;47.072;15.452;2023-09-07T07:12:22;19.90;85.70
2783;DHT22;1399;47.072;15.452;2023-09-07T07:14:47;19.90;85.80
2783;DHT22;1399;47.072;15.452;2023-09-07T07:17:13;19.90;85.80
2783;DHT22;1399;47.072;15.452;2023-09-07T07:19:39;19.90;85.90
2783;DHT22;1399;47.072;15.452;2023-09-07T07:22:05;19.90;85.90
2783;DHT22;1399;47.072;15.452;2023-09-07T07:24:30;19.90;85.90
2783;DHT22;1399;47.072;15.452;2023-09-07T07:26:56;19.90;85.90
2783;DHT22;1399;47.072;15.452;2023-09-07T07:29:22;19.90;86.00
2783;DHT22;1399;47.072;15.452;2023-09-07T07:31:48;20.00;86.10
2783;DHT22;1399;47.072;15.452;2023-09-07T07:34:14;20.00;86.10
2783;DHT22;1399;47.072;15.452;2023-09-07T07:36:39;20.00;86.10
2783;DHT22;1399;47.072;15.452;2023-09-07T07:39:05;20.00;86.00
2783;DHT22;1399;47.072;15.452;2023-09-07T07:41:34;20.00;86.00
2783;DHT22;1399;47.072;15.452;2023-09-07T07:44:01;20.00;86.00
2783;DHT22;1399;47.072;15.452;2023-09-07T07:46:27;20.10;86.10
2783;DHT22;1399;47.072;15.452;2023-09-07T07:48:52;20.10;86.10
2783;DHT22;1399;47.072;15.452;2023-09-07T07:51:18;20.10;86.10
2783;DHT22;1399;47.072;15.452;2023-09-07T07:53:44;20.10;86.00
2783;DHT22;1399;47.072;15.452;2023-09-07T07:56:17;20.10;86.00
2783;DHT22;1399;47.072;15.452;2023-09-07T07:58:43;20.20;86.10
2783;DHT22;1399;47.072;15.452;2023-09-07T08:01:19;20.20;86.10
2783;DHT22;1399;47.072;15.452;2023-09-07T08:03:49;20.20;86.00
2783;DHT22;1399;47.072;15.452;2023-09-07T08:06:14;20.20;85.90
2783;DHT22;1399;47.072;15.452;2023-09-07T08:08:40;20.20;85.80
2783;DHT22;1399;47.072;15.452;2023-09-07T08:11:06;20.20;85.80
2783;DHT22;1399;47.072;15.452;2023-09-07T08:13:33;20.20;85.80
2783;DHT22;1399;47.072;15.452;2023-09-07T08:16:04;20.30;85.80
2783;DHT22;1399;47.072;15.452;2023-09-07T08:18:30;20.30;85.80
2783;DHT22;1399;47.072;15.452;2023-09-07T08:20:59;20.30;85.70
2783;DHT22;1399;47.072;15.452;2023-09-07T08:23:25;20.30;85.60
2783;DHT22;1399;47.072;15.452;2023-09-07T08:25:52;20.30;85.60
2783;DHT22;1399;47.072;15.452;2023-09-07T08:28:18;20.40;85.70
2783;DHT22;1399;47.072;15.452;2023-09-07T08:30:44;20.40;85.60
2783;DHT22;1399;47.072;15.452;2023-09-07T08:33:10;20.40;85.50
2783;DHT22;1399;47.072;15.452;2023-09-07T08:35:36;20.40;85.50
2783;DHT22;1399;47.072;15.452;2023-09-07T08:38:10;20.40;85.40
2783;DHT22;1399;47.072;15.452;2023-09-07T08:40:38;20.50;85.50
2783;DHT22;1399;47.072;15.452;2023-09-07T08:43:08;20.50;85.40
2783;DHT22;1399;47.072;15.452;2023-09-07T08:45:44;20.50;85.30
2783;DHT22;1399;47.072;15.452;2023-09-07T08:48:14;20.50;85.30
2783;DHT22;1399;47.072;15.452;2023-09-07T08:50:45;20.50;85.20
2783;DHT22;1399;47.072;15.452;2023-09-07T08:53:18;20.60;85.30
2783;DHT22;1399;47.072;15.452;2023-09-07T08:55:44;20.60;85.20
2783;DHT22;1399;47.072;15.452;2023-09-07T08:58:10;20.60;85.10
2783;DHT22;1399;47.072;15.452;2023-09-07T09:00:37;20.60;85.20
2783;DHT22;1399;47.072;15.452;2023-09-07T09:03:04;20.70;85.10
2783;DHT22;1399;47.072;15.452;2023-09-07T09:05:31;20.70;85.10
2783;DHT22;1399;47.072;15.452;2023-09-07T09:08:04;20.70;85.10
2783;DHT22;1399;47.072;15.452;2023-09-07T09:10:30;20.70;85.10
2783;DHT22;1399;47.072;15.452;2023-09-07T09:12:56;20.70;85.00
2783;DHT22;1399;47.072;15.452;2023-09-07T09:15:22;20.80;85.00
2783;DHT22;1399;47.072;15.452;2023-09-07T09:17:48;20.80;85.00
2783;DHT22;1399;47.072;15.452;2023-09-07T09:20:24;20.80;84.90
2783;DHT22;1399;47.072;15.452;2023-09-07T09:22:54;20.80;84.80
2783;DHT22;1399;47.072;15.452;2023-09-07T09:25:20;20.80;84.70
2783;DHT22;1399;47.072;15.452;2023-09-07T09:27:47;20.90;84.70
2783;DHT22;1399;47.072;15.452;2023-09-07T09:30:14;20.90;84.60
2783;DHT22;1399;47.072;15.452;2023-09-07T09:32:44;20.90;84.60
2783;DHT22;1399;47.072;15.452;2023-09-07T09:35:10;20.90;84.60
2783;DHT22;1399;47.072;15.452;2023-09-07T09:37:46;21.00;84.70
2783;DHT22;1399;47.072;15.452;2023-09-07T09:40:13;21.00;84.60
2783;DHT22;1399;47.072;15.452;2023-09-07T09:42:41;21.00;84.60
2783;DHT22;1399;47.072;15.452;2023-09-07T09:45:09;21.10;85.50
2783;DHT22;1399;47.072;15.452;2023-09-07T09:47:40;21.00;84.60
2783;DHT22;1399;47.072;15.452;2023-09-07T09:50:10;21.10;84.80
2783;DHT22;1399;47.072;15.452;2023-09-07T09:52:36;21.10;84.80
2783;DHT22;1399;47.072;15.452;2023-09-07T09:55:07;21.10;84.60
2783;DHT22;1399;47.072;15.452;2023-09-07T09:57:36;21.10;84.50
2783;DHT22;1399;47.072;15.452;2023-09-07T10:00:04;21.10;84.30
2783;DHT22;1399;47.072;15.452;2023-09-07T10:05:23;21.20;84.20
2783;DHT22;1399;47.072;15.452;2023-09-07T10:07:50;21.20;84.20
2783;DHT22;1399;47.072;15.452;2023-09-07T10:10:18;21.20;84.10
2783;DHT22;1399;47.072;15.452;2023-09-07T10:12:51;21.30;84.40
2783;DHT22;1399;47.072;15.452;2023-09-07T10:15:25;21.30;84.20
2783;DHT22;1399;47.072;15.452;2023-09-07T10:18:20;21.30;84.10
2783;DHT22;1399;47.072;15.452;2023-09-07T10:23:22;21.30;84.30
2783;DHT22;1399;47.072;15.452;2023-09-07T10:25:53;21.30;84.30
2783;DHT22;1399;47.072;15.452;2023-09-07T10:28:24;21.40;84.60
2783;DHT22;1399;47.072;15.452;2023-09-07T10:31:24;21.40;84.20
2783;DHT22;1399;47.072;15.452;2023-09-07T10:33:49;21.40;84.10
2783;DHT22;1399;47.072;15.452;2023-09-07T10:36:25;21.40;83.80
2783;DHT22;1399;47.072;15.452;2023-09-07T10:38:53;21.40;84.00
2783;DHT22;1399;47.072;15.452;2023-09-07T10:41:19;21.50;84.10
2783;DHT22;1399;47.072;15.452;2023-09-07T10:43:50;21.50;83.90
2783;DHT22;1399;47.072;15.452;2023-09-07T10:46:22;21.50;83.80
2783;DHT22;1399;47.072;15.452;2023-09-07T10:48:52;21.50;83.80
2783;DHT22;1399;47.072;15.452;2023-09-07T10:51:19;21.50;83.70
2783;DHT22;1399;47.072;15.452;2023-09-07T10:53:45;21.60;83.90
2783;DHT22;1399;47.072;15.452;2023-09-07T10:56:11;21.60;83.70
2783;DHT22;1399;47.072;15.452;2023-09-07T10:58:37;21.60;83.50
2783;DHT22;1399;47.072;15.452;2023-09-07T11:01:08;21.60;83.50
2783;DHT22;1399;47.072;15.452;2023-09-07T11:03:36;21.60;83.50
2783;DHT22;1399;47.072;15.452;2023-09-07T11:06:25;21.60;83.30
2783;DHT22;1399;47.072;15.452;2023-09-07T11:08:51;21.60;83.30
2783;DHT22;1399;47.072;15.452;2023-09-07T11:11:17;21.70;83.30
2783;DHT22;1399;47.072;15.452;2023-09-07T11:13:42;21.70;83.60
2783;DHT22;1399;47.072;15.452;2023-09-07T11:16:09;21.70;83.80
2783;DHT22;1399;47.072;15.452;2023-09-07T11:18:35;21.70;83.60
2783;DHT22;1399;47.072;15.452;2023-09-07T11:21:02;21.70;83.20
2783;DHT22;1399;47.072;15.452;2023-09-07T11:23:33;21.70;83.00
2783;DHT22;1399;47.072;15.452;2023-09-07T11:26:05;21.70;83.00
2783;DHT22;1399;47.072;15.452;2023-09-07T11:28:31;21.70;83.10
2783;DHT22;1399;47.072;15.452;2023-09-07T11:30:58;21.70;83.10
2783;DHT22;1399;47.072;15.452;2023-09-07T11:33:24;21.80;82.70
2783;DHT22;1399;47.072;15.452;2023-09-07T11:35:51;21.80;82.70
2783;DHT22;1399;47.072;15.452;2023-09-07T11:38:18;21.80;82.50
2783;DHT22;1399;47.072;15.452;2023-09-07T11:40:44;21.80;82.50
2783;DHT22;1399;47.072;15.452;2023-09-07T11:43:11;21.80;82.50
2783;DHT22;1399;47.072;15.452;2023-09-07T11:45:39;21.80;82.60
2783;DHT22;1399;47.072;15.452;2023-09-07T11:48:05;21.80;82.50
2783;DHT22;1399;47.072;15.452;2023-09-07T11:50:31;21.80;82.90
2783;DHT22;1399;47.072;15.452;2023-09-07T11:52:57;21.80;82.80
2783;DHT22;1399;47.072;15.452;2023-09-07T11:55:23;21.80;82.70
2783;DHT22;1399;47.072;15.452;2023-09-07T11:57:49;21.80;82.50
2783;DHT22;1399;47.072;15.452;2023-09-07T12:00:15;21.80;82.30
2783;DHT22;1399;47.072;15.452;2023-09-07T12:02:41;21.90;82.20
2783;DHT22;1399;47.072;15.452;2023-09-07T12:05:07;21.90;82.00
2783;DHT22;1399;47.072;15.452;2023-09-07T12:07:40;21.90;81.80
2783;DHT22;1399;47.072;15.452;2023-09-07T12:10:06;21.90;82.00
2783;DHT22;1399;47.072;15.452;2023-09-07T12:12:36;21.90;81.70
2783;DHT22;1399;47.072;15.452;2023-09-07T12:15:02;21.90;81.50
2783;DHT22;1399;47.072;15.452;2023-09-07T12:17:32;21.90;81.30
2783;DHT22;1399;47.072;15.452;2023-09-07T12:19:59;21.90;81.20
2783;DHT22;1399;47.072;15.452;2023-09-07T12:22:26;21.90;81.20
2783;DHT22;1399;47.072;15.452;2023-09-07T12:24:51;22.00;81.30
2783;DHT22;1399;47.072;15.452;2023-09-07T12:27:17;22.00;81.30
2783;DHT22;1399;47.072;15.452;2023-09-07T12:29:44;22.00;81.20
2783;DHT22;1399;47.072;15.452;2023-09-07T12:32:10;22.00;81.20
2783;DHT22;1399;47.072;15.452;2023-09-07T12:34:36;22.00;81.30
2783;DHT22;1399;47.072;15.452;2023-09-07T12:37:02;22.00;80.80
2783;DHT22;1399;47.072;15.452;2023-09-07T12:39:34;22.00;80.80
2783;DHT22;1399;47.072;15.452;2023-09-07T12:41:59;22.00;80.80
2783;DHT22;1399;47.072;15.452;2023-09-07T12:44:25;22.00;80.70
2783;DHT22;1399;47.072;15.452;2023-09-07T12:46:51;22.00;80.70
2783;DHT22;1399;47.072;15.452;2023-09-07T12:49:16;22.00;80.70
2783;DHT22;1399;47.072;15.452;2023-09-07T12:51:45;22.00;80.60
2783;DHT22;1399;47.072;15.452;2023-09-07T12:54:11;22.00;80.50
2783;DHT22;1399;47.072;15.452;2023-09-07T12:56:36;22.00;80.60
2783;DHT22;1399;47.072;15.452;2023-09-07T12:59:02;22.00;80.60
2783;DHT22;1399;47.072;15.452;2023-09-07T13:01:29;22.00;80.60
2783;DHT22;1399;47.072;15.452;2023-09-07T13:03:56;22.00;80.80
2783;DHT22;1399;47.072;15.452;2023-09-07T13:06:22;22.00;80.60
2783;DHT22;1399;47.072;15.452;2023-09-07T13:08:47;22.00;80.60
2783;DHT22;1399;47.072;15.452;2023-09-07T13:11:13;22.00;80.20
2783;DHT22;1399;47.072;15.452;2023-09-07T13:13:39;22.00;80.10
2783;DHT22;1399;47.072;15.452;2023-09-07T13:16:05;22.00;79.90
2783;DHT22;1399;47.072;15.452;2023-09-07T13:18:30;22.00;79.80
2783;DHT22;1399;47.072;15.452;2023-09-07T13:20:59;22.00;79.70
2783;DHT22;1399;47.072;15.452;2023-09-07T13:23:27;22.00;79.60
2783;DHT22;1399;47.072;15.452;2023-09-07T13:25:53;22.00;79.50
2783;DHT22;1399;47.072;15.452;2023-09-07T13:28:19;22.00;79.50
2783;DHT22;1399;47.072;15.452;2023-09-07T13:30:45;22.00;79.60
2783;DHT22;1399;47.072;15.452;2023-09-07T13:33:11;22.00;79.50
2783;DHT22;1399;47.072;15.452;2023-09-07T13:35:36;22.00;79.50
2783;DHT22;1399;47.072;15.452;2023-09-07T13:38:02;22.00;79.40
2783;DHT22;1399;47.072;15.452;2023-09-07T13:40:28;22.00;79.30
2783;DHT22;1399;47.072;15.452;2023-09-07T13:42:55;22.00;79.00
2783;DHT22;1399;47.072;15.452;2023-09-07T13:45:22;22.00;78.80
2783;DHT22;1399;47.072;15.452;2023-09-07T13:47:48;22.00;78.60
2783;DHT22;1399;47.072;15.452;2023-09-07T13:50:14;22.00;78.40
2783;DHT22;1399;47.072;15.452;2023-09-07T13:52:39;22.00;78.30
2783;DHT22;1399;47.072;15.452;2023-09-07T13:55:05;22.00;78.20
2783;DHT22;1399;47.072;15.452;2023-09-07T13:57:33;22.00;78.20
2783;DHT22;1399;47.072;15.452;2023-09-07T13:59:58;22.00;78.30
2783;DHT22;1399;47.072;15.452;2023-09-07T14:02:24;22.00;78.20
2783;DHT22;1399;47.072;15.452;2023-09-07T14:04:50;22.00;78.10
2783;DHT22;1399;47.072;15.452;2023-09-07T14:07:16;22.00;78.70
2783;DHT22;1399;47.072;15.452;2023-09-07T14:09:42;22.00;77.80
2783;DHT22;1399;47.072;15.452;2023-09-07T14:12:08;22.00;77.70
2783;DHT22;1399;47.072;15.452;2023-09-07T14:14:34;22.00;77.60
2783;DHT22;1399;47.072;15.452;2023-09-07T14:17:00;22.00;77.40
2783;DHT22;1399;47.072;15.452;2023-09-07T14:19:26;22.00;77.20
2783;DHT22;1399;47.072;15.452;2023-09-07T14:21:59;22.00;77.00
2783;DHT22;1399;47.072;15.452;2023-09-07T14:24:25;22.00;76.80
2783;DHT22;1399;47.072;15.452;2023-09-07T14:26:51;22.00;76.80
2783;DHT22;1399;47.072;15.452;2023-09-07T14:29:17;22.00;76.60
2783;DHT22;1399;47.072;15.452;2023-09-07T14:31:43;22.00;76.50
2783;DHT22;1399;47.072;15.452;2023-09-07T14:34:12;22.00;76.40
2783;DHT22;1399;47.072;15.452;2023-09-07T14:36:38;22.00;76.10
2783;DHT22;1399;47.072;15.452;2023-09-07T14:39:08;22.00;75.90
2783;DHT22;1399;47.072;15.452;2023-09-07T14:41:37;22.00;75.80
2783;DHT22;1399;47.072;15.452;2023-09-07T14:44:03;22.00;75.60
2783;DHT22;1399;47.072;15.452;2023-09-07T14:46:29;22.00;75.40
2783;DHT22;1399;47.072;15.452;2023-09-07T14:48:55;21.90;75.30
2783;DHT22;1399;47.072;15.452;2023-09-07T14:51:23;21.90;75.40
2783;DHT22;1399;47.072;15.452;2023-09-07T14:53:49;21.90;75.30
2783;DHT22;1399;47.072;15.452;2023-09-07T14:56:15;21.90;75.40
2783;DHT22;1399;47.072;15.452;2023-09-07T14:58:40;21.90;75.40
2783;DHT22;1399;47.072;15.452;2023-09-07T15:01:06;21.90;75.50
2783;DHT22;1399;47.072;15.452;2023-09-07T15:03:33;21.90;75.70
2783;DHT22;1399;47.072;15.452;2023-09-07T15:05:59;21.90;75.80
2783;DHT22;1399;47.072;15.452;2023-09-07T15:08:25;21.90;75.80
2783;DHT22;1399;47.072;15.452;2023-09-07T15:10:51;21.90;75.90
2783;DHT22;1399;47.072;15.452;2023-09-07T15:13:17;21.90;75.90
2783;DHT22;1399;47.072;15.452;2023-09-07T15:15:44;21.90;76.00
2783;DHT22;1399;47.072;15.452;2023-09-07T15:18:10;21.80;75.90
2783;DHT22;1399;47.072;15.452;2023-09-07T15:20:36;21.80;76.10
2783;DHT22;1399;47.072;15.452;2023-09-07T15:23:02;21.80;76.00
2783;DHT22;1399;47.072;15.452;2023-09-07T15:25:29;21.80;76.00
2783;DHT22;1399;47.072;15.452;2023-09-07T15:27:55;21.80;76.10
2783;DHT22;1399;47.072;15.452;2023-09-07T15:30:23;21.80;76.10
2783;DHT22;1399;47.072;15.452;2023-09-07T15:32:49;21.80;76.30
2783;DHT22;1399;47.072;15.452;2023-09-07T15:35:16;21.80;76.40
2783;DHT22;1399;47.072;15.452;2023-09-07T15:37:43;21.80;76.50
2783;DHT22;1399;47.072;15.452;2023-09-07T15:40:12;21.80;76.70
2783;DHT22;1399;47.072;15.452;2023-09-07T15:42:39;21.80;76.80
2783;DHT22;1399;47.072;15.452;2023-09-07T15:45:06;21.80;76.90
2783;DHT22;1399;47.072;15.452;2023-09-07T15:47:33;21.80;77.00